Alloy, West Virginia
Current Conditions -  °F | °C
As of 10:54 AM on Friday 21 Nov 2014 (Local Time) from KCRW Reporting Station
Clear Clear  
Wind Chill: 29°   Ceiling: Unl
Heat Index: 29°   Visibility: 10mi
Dew Point: 10°   Wind: 3mph
Humidity: 45%   Direction: NA
Pressure: 30.5"   Gusts: NA
Location:  38.14°N, 81.27°W
Report Text: KCRW 211554Z VRB03KT 10SM CLR M02/M12 A3050 RMK AO2 SLP338 T10171122
Loading
Personal Weather Stations






























Interactive Weather Map New forecast layout! Learn more

10-Day Weather Forecast

Advertisements
Track Severe Weather on mobile